Heth, Arkansas
Current Conditions -  °F | °C
As of 11:53 AM on Sunday 21 Dec 2014 (Local Time) from KAWM Reporting Station
Clear Clear  
Wind Chill: 51°   Ceiling: Unl
Heat Index: 51°   Visibility: 10mi
Dew Point: 34°   Wind: 7mph
Humidity: 52%   Direction: 120°ESE
Pressure: 30.13"   Gusts: NA
Location:  35.08°N, 90.49°W
Report Text: KAWM 211753Z AUTO 12006KT 10SM CLR 11/01 A3013 RMK AO2 SLP202 T01060011 10106 21006 58030 $
Loading
Personal Weather Stations






























Interactive Weather Map New forecast layout! Learn more

10-Day Weather Forecast

Advertisements
Track Severe Weather on mobile